New Meadows, Idaho
Current Conditions -  °F | °C
As of 12:51 PM on Thursday 18 Dec 2014 (Local Time) from KMYL Reporting Station
Light Snow Light Snow  
Wind Chill: 26°   Ceiling: 2700
Heat Index: 33°   Visibility: 9mi
Dew Point: 31°   Wind: 8mph
Humidity: 92%   Direction: 150°SSE
Pressure: 30.03"   Gusts: NA
Location:  44.97°N, 116.28°W
Report Text: KMYL 181951Z AUTO 15007KT 9SM -SN BKN027 OVC034 01/M01 A3003 RMK AO2 SLP190 P0000 T00061006
Loading
Personal Weather Stations






























Interactive Weather Map New forecast layout! Learn more

10-Day Weather Forecast

Advertisements
Track Severe Weather on mobile